Time;durP1;ratioP1;P1;durP2;ratioP2;P2;SDS_P1;SDS_P2;PMS_P1;PMS_P2;Temp;Humidity;BMP_temperature;BMP_pressure;BME280_temperature;BME280_humidity;BME280_pressure;Samples;Min_cycle;Max_cycle;Signal;HPM_P1;HPM_P2
2021/05/28 00:00:25;;;;;;;17.90;13.45;;;9.20;99.90;;;;;;5037546;28;20045;-73
2021/05/28 00:02:50;;;;;;;16.00;13.40;;;9.30;99.90;;;;;;5068362;28;20362;-74
2021/05/28 00:05:16;;;;;;;17.30;13.75;;;9.40;99.90;;;;;;5068334;28;20036;-74
2021/05/28 00:07:42;;;;;;;17.60;13.85;;;9.50;99.90;;;;;;5061710;28;20024;-73
2021/05/28 00:10:08;;;;;;;19.00;15.05;;;9.60;99.90;;;;;;5061263;28;20027;-73
2021/05/28 00:12:34;;;;;;;18.58;15.40;;;9.60;99.90;;;;;;5067871;28;20059;-74
2021/05/28 00:15:00;;;;;;;19.55;14.90;;;9.60;99.90;;;;;;5068224;28;20468;-73
2021/05/28 00:17:25;;;;;;;18.77;13.75;;;9.50;99.90;;;;;;5068211;28;20528;-75
2021/05/28 00:19:51;;;;;;;17.58;13.50;;;9.60;99.90;;;;;;5067649;28;20016;-75
2021/05/28 00:22:16;;;;;;;19.75;16.10;;;9.70;99.90;;;;;;5061107;28;20045;-74
2021/05/28 00:24:42;;;;;;;19.85;15.50;;;9.80;99.90;;;;;;5074624;28;20046;-75
2021/05/28 00:27:07;;;;;;;20.33;16.08;;;9.70;99.90;;;;;;5061038;28;20455;-75
2021/05/28 00:29:33;;;;;;;21.33;16.58;;;9.60;99.90;;;;;;5061455;28;20033;-75
2021/05/28 00:32:02;;;;;;;20.73;15.90;;;9.60;99.90;;;;;;5049914;28;20021;-75
2021/05/28 00:34:27;;;;;;;19.50;15.90;;;9.50;99.90;;;;;;5049863;28;20036;-74
2021/05/28 00:36:53;;;;;;;15.98;13.98;;;9.50;99.90;;;;;;5067716;28;20021;-74
2021/05/28 00:39:18;;;;;;;18.27;14.38;;;9.40;99.90;;;;;;5054154;28;20028;-73
2021/05/28 00:41:44;;;;;;;17.30;14.93;;;9.50;99.90;;;;;;5066346;28;20020;-75
2021/05/28 00:44:11;;;;;;;18.88;15.35;;;9.60;99.90;;;;;;5054290;28;20370;-75
2021/05/28 00:46:36;;;;;;;20.35;15.43;;;9.70;99.90;;;;;;5053983;28;20112;-74
2021/05/28 00:49:02;;;;;;;22.13;16.65;;;9.70;99.90;;;;;;5054371;28;20096;-76
2021/05/28 00:51:28;;;;;;;20.40;16.40;;;9.70;99.90;;;;;;5067709;28;20025;-76
2021/05/28 00:53:53;;;;;;;23.27;17.17;;;9.70;99.90;;;;;;5066685;28;20439;-76
2021/05/28 00:56:19;;;;;;;18.95;15.32;;;9.70;99.90;;;;;;5060579;28;20017;-74
2021/05/28 00:58:47;;;;;;;23.63;17.75;;;9.60;99.90;;;;;;5054328;28;20152;-75
2021/05/28 01:01:13;;;;;;;27.67;17.88;;;9.60;99.90;;;;;;5031629;28;20025;-74
2021/05/28 01:03:38;;;;;;;26.27;18.52;;;9.50;99.90;;;;;;5062841;28;20043;-74
2021/05/28 01:06:04;;;;;;;23.30;16.92;;;9.40;99.90;;;;;;5048645;28;20029;-74
2021/05/28 01:08:30;;;;;;;20.38;16.15;;;9.40;99.90;;;;;;5062763;28;20465;-75
2021/05/28 01:10:56;;;;;;;23.10;17.33;;;9.50;99.90;;;;;;5051142;28;20024;-75
2021/05/28 01:13:21;;;;;;;23.98;17.40;;;9.60;99.90;;;;;;5050814;28;20113;-73
2021/05/28 01:15:47;;;;;;;22.67;16.73;;;9.50;99.90;;;;;;5050763;28;20377;-73
2021/05/28 01:18:12;;;;;;;23.83;18.67;;;9.50;99.90;;;;;;5053677;28;20071;-74
2021/05/28 01:20:38;;;;;;;22.02;17.90;;;9.40;99.90;;;;;;5053217;28;20024;-74
2021/05/28 01:23:05;;;;;;;23.23;16.92;;;9.50;99.90;;;;;;5035612;28;20025;-74
2021/05/28 01:25:31;;;;;;;21.63;16.40;;;9.30;99.90;;;;;;5053295;28;20017;-74
2021/05/28 01:27:57;;;;;;;21.80;17.13;;;9.30;99.90;;;;;;5065961;28;20032;-74
2021/05/28 01:30:24;;;;;;;26.48;19.67;;;9.50;99.90;;;;;;5054079;28;20025;-74
2021/05/28 01:32:50;;;;;;;25.30;18.98;;;9.50;99.90;;;;;;5049054;28;20154;-74
2021/05/28 01:35:16;;;;;;;26.25;19.58;;;9.40;99.90;;;;;;5059884;28;20025;-74
2021/05/28 01:37:43;;;;;;;24.80;18.98;;;9.30;99.90;;;;;;5060583;28;20105;-75
2021/05/28 01:40:10;;;;;;;26.92;17.50;;;9.20;99.90;;;;;;5048598;28;20025;-73
2021/05/28 01:42:36;;;;;;;27.25;20.23;;;9.20;99.90;;;;;;5065597;28;20025;-75
2021/05/28 01:45:03;;;;;;;26.33;18.90;;;9.30;99.90;;;;;;5059513;28;20051;-75
2021/05/28 01:47:30;;;;;;;24.83;19.08;;;9.20;99.90;;;;;;5060318;28;20079;-75
2021/05/28 01:49:56;;;;;;;25.20;18.58;;;9.20;99.90;;;;;;5066198;28;20025;-75
2021/05/28 01:52:23;;;;;;;23.30;17.48;;;9.20;99.90;;;;;;5065593;28;20096;-76
2021/05/28 01:54:49;;;;;;;23.75;18.58;;;9.30;99.90;;;;;;5059244;28;20024;-75
2021/05/28 01:57:14;;;;;;;27.17;18.20;;;9.40;99.90;;;;;;5041767;28;20029;-76
2021/05/28 01:59:42;;;;;;;27.02;19.67;;;9.30;99.90;;;;;;5057143;28;20042;-75
2021/05/28 02:02:07;;;;;;;19.35;16.20;;;9.30;99.90;;;;;;5048271;28;20024;-75
2021/05/28 02:04:33;;;;;;;24.95;18.13;;;9.20;99.90;;;;;;5060376;28;20043;-77
2021/05/28 02:06:58;;;;;;;25.15;18.15;;;9.10;99.90;;;;;;5072025;28;20037;-74
2021/05/28 02:09:24;;;;;;;26.33;18.52;;;9.30;99.90;;;;;;5059680;28;20056;-77
2021/05/28 02:11:50;;;;;;;25.20;18.77;;;9.30;99.90;;;;;;5041362;28;20021;-75
2021/05/28 02:14:15;;;;;;;26.73;19.33;;;9.40;99.90;;;;;;5065431;28;20032;-74
2021/05/28 02:16:41;;;;;;;25.50;18.45;;;9.20;99.90;;;;;;5048297;28;20025;-74
2021/05/28 02:19:08;;;;;;;28.70;20.10;;;9.10;99.90;;;;;;5072155;28;20032;-74
2021/05/28 02:21:35;;;;;;;26.77;18.00;;;9.00;99.90;;;;;;5072351;28;20418;-74
2021/05/28 02:24:01;;;;;;;25.40;18.48;;;9.10;99.90;;;;;;5072309;28;20023;-72
2021/05/28 02:26:27;;;;;;;28.48;20.02;;;9.20;99.90;;;;;;5072198;28;20040;-72
2021/05/28 02:28:52;;;;;;;26.15;18.83;;;9.20;99.90;;;;;;5065232;28;20036;-72
2021/05/28 02:31:18;;;;;;;24.27;18.83;;;9.30;99.90;;;;;;5052214;28;20461;-74
2021/05/28 02:33:44;;;;;;;23.98;19.40;;;9.30;99.90;;;;;;5072153;28;20153;-74
2021/05/28 02:36:09;;;;;;;25.67;19.05;;;9.30;99.90;;;;;;5072540;28;20029;-74
2021/05/28 02:38:35;;;;;;;24.92;18.50;;;9.30;99.90;;;;;;5048675;28;20036;-73
2021/05/28 02:41:01;;;;;;;25.45;19.65;;;9.10;99.90;;;;;;5053922;28;20029;-73
2021/05/28 02:43:27;;;;;;;23.33;17.35;;;9.10;99.90;;;;;;5053868;28;20052;-73
2021/05/28 02:45:53;;;;;;;21.25;17.48;;;9.20;99.90;;;;;;5052194;28;20396;-74
2021/05/28 02:48:19;;;;;;;24.75;19.50;;;9.40;99.90;;;;;;5046705;28;20024;-73
2021/05/28 02:50:46;;;;;;;24.02;18.45;;;9.30;99.90;;;;;;5059903;28;20037;-74
2021/05/28 02:53:11;;;;;;;23.85;18.13;;;9.10;99.90;;;;;;5065360;28;20043;-74
2021/05/28 02:55:38;;;;;;;26.92;19.05;;;9.00;99.90;;;;;;5052518;28;20025;-73
2021/05/28 02:58:04;;;;;;;25.65;18.50;;;9.10;99.90;;;;;;5065845;28;20025;-73
2021/05/28 03:00:30;;;;;;;24.42;17.92;;;9.10;99.90;;;;;;5034471;28;20590;-73
2021/05/28 03:02:55;;;;;;;22.83;18.23;;;9.10;99.90;;;;;;5052372;28;20026;-73
2021/05/28 03:05:21;;;;;;;22.90;18.27;;;9.20;99.90;;;;;;5051104;28;20104;-72
2021/05/28 03:07:46;;;;;;;25.23;18.17;;;9.20;99.90;;;;;;5034246;28;20119;-73
2021/05/28 03:10:12;;;;;;;26.13;19.27;;;9.20;99.90;;;;;;5065826;28;20032;-73
2021/05/28 03:12:38;;;;;;;26.80;19.13;;;9.20;99.90;;;;;;5053989;28;20028;-73
2021/05/28 03:15:05;;;;;;;25.10;19.35;;;9.20;99.90;;;;;;5073294;28;20047;-72
2021/05/28 03:17:31;;;;;;;25.35;18.77;;;9.20;99.90;;;;;;5075462;28;20024;-72
2021/05/28 03:19:57;;;;;;;26.90;19.42;;;9.20;99.90;;;;;;5075357;28;20070;-71
2021/05/28 03:22:32;;;;;;;26.98;19.63;;;9.30;99.90;;;;;;5074946;28;20023;-72
2021/05/28 03:25:07;;;;;;;24.15;18.60;;;9.30;99.90;;;;;;5075166;28;20027;-72
2021/05/28 03:27:33;;;;;;;26.45;19.20;;;9.40;99.90;;;;;;5074877;28;20083;-73
2021/05/28 03:29:58;;;;;;;26.48;19.60;;;9.40;99.90;;;;;;5074656;28;20055;-73
2021/05/28 03:32:24;;;;;;;24.10;18.25;;;9.40;99.90;;;;;;5056564;28;20025;-74
2021/05/28 03:34:52;;;;;;;26.02;19.20;;;9.50;99.90;;;;;;5041086;28;20029;-74
2021/05/28 03:37:18;;;;;;;27.10;18.83;;;9.50;99.90;;;;;;5045442;28;20025;-73
2021/05/28 03:39:47;;;;;;;26.35;19.13;;;9.30;99.90;;;;;;5047759;28;20021;-73
2021/05/28 03:42:13;;;;;;;29.65;20.50;;;9.50;99.90;;;;;;5048117;28;20017;-73
2021/05/28 03:44:38;;;;;;;28.77;21.50;;;9.40;99.90;;;;;;5070770;28;20677;-73
2021/05/28 03:47:05;;;;;;;28.23;20.73;;;9.50;99.90;;;;;;5051976;28;20025;-73
2021/05/28 03:49:30;;;;;;;29.73;21.30;;;9.40;99.90;;;;;;5050314;28;20028;-73
2021/05/28 03:51:56;;;;;;;29.02;21.60;;;9.40;99.90;;;;;;5073533;28;20477;-73
2021/05/28 03:54:21;;;;;;;26.50;20.85;;;9.50;99.90;;;;;;5057775;28;20059;-73
2021/05/28 03:56:50;;;;;;;27.73;20.65;;;9.50;99.90;;;;;;5051761;28;20037;-74
2021/05/28 03:59:15;;;;;;;26.85;20.77;;;9.60;99.90;;;;;;5037357;28;20021;-74
2021/05/28 04:01:41;;;;;;;31.60;21.20;;;9.60;99.90;;;;;;5061753;28;20078;-75
2021/05/28 04:04:07;;;;;;;27.58;20.23;;;9.70;99.90;;;;;;5058159;28;20369;-74
2021/05/28 04:06:33;;;;;;;28.10;19.95;;;9.80;99.90;;;;;;5060910;28;20392;-76
2021/05/28 04:08:58;;;;;;;29.33;20.45;;;9.70;99.90;;;;;;5036631;28;20433;-76
2021/05/28 04:11:24;;;;;;;31.65;21.58;;;9.70;99.90;;;;;;5061559;28;20112;-76
2021/05/28 04:13:51;;;;;;;29.75;21.52;;;9.50;99.90;;;;;;5064629;28;20486;-76
2021/05/28 04:16:16;;;;;;;26.08;20.65;;;9.50;99.90;;;;;;5055038;28;20392;-75
2021/05/28 04:18:42;;;;;;;28.13;21.63;;;9.60;99.90;;;;;;5071932;28;20041;-73
2021/05/28 04:21:07;;;;;;;30.05;22.38;;;9.50;99.90;;;;;;5069301;28;20025;-74
2021/05/28 04:23:33;;;;;;;37.53;23.23;;;9.40;99.90;;;;;;5061407;28;20043;-74
2021/05/28 04:25:58;;;;;;;31.23;22.73;;;9.40;99.90;;;;;;5050178;28;20373;-74
2021/05/28 04:28:25;;;;;;;30.67;22.50;;;9.30;99.90;;;;;;5057511;28;20118;-72
2021/05/28 04:30:51;;;;;;;29.88;21.80;;;9.20;99.90;;;;;;5058431;28;20108;-73
2021/05/28 04:33:17;;;;;;;34.00;21.80;;;9.20;99.90;;;;;;5043082;28;20043;-73
2021/05/28 04:35:42;;;;;;;34.15;21.75;;;9.30;99.90;;;;;;5077522;28;20028;-73
2021/05/28 04:38:08;;;;;;;26.92;21.30;;;9.30;99.90;;;;;;5043946;28;20057;-73
2021/05/28 04:40:34;;;;;;;27.98;20.50;;;9.50;99.90;;;;;;5048645;28;20056;-74
2021/05/28 04:43:00;;;;;;;32.13;22.58;;;9.60;99.90;;;;;;5063176;28;20046;-74
2021/05/28 04:45:26;;;;;;;29.30;22.67;;;9.60;99.90;;;;;;5049441;28;20108;-74
2021/05/28 04:47:52;;;;;;;31.83;24.42;;;9.70;99.90;;;;;;5054747;28;20032;-74
2021/05/28 04:50:18;;;;;;;29.85;22.38;;;9.60;99.90;;;;;;5068012;28;20152;-74
2021/05/28 04:52:45;;;;;;;33.28;24.45;;;9.50;99.90;;;;;;5038865;28;20041;-73
2021/05/28 04:55:12;;;;;;;29.58;22.55;;;9.70;99.90;;;;;;5055819;28;20049;-73
2021/05/28 04:57:38;;;;;;;30.67;22.15;;;9.70;99.90;;;;;;5057330;28;20037;-74
2021/05/28 05:00:08;;;;;;;30.23;20.65;;;9.70;99.90;;;;;;5038208;28;20013;-74
2021/05/28 05:02:34;;;;;;;29.48;21.48;;;9.70;99.90;;;;;;5050127;28;20052;-74
2021/05/28 05:05:00;;;;;;;26.67;21.40;;;9.80;99.90;;;;;;5054788;28;20025;-74
2021/05/28 05:07:25;;;;;;;27.67;19.70;;;9.80;99.90;;;;;;5068026;28;20025;-74
2021/05/28 05:09:51;;;;;;;30.90;22.15;;;9.90;99.90;;;;;;5066648;28;20028;-73
2021/05/28 05:12:16;;;;;;;32.72;21.92;;;9.90;99.90;;;;;;5076976;28;20439;-73
2021/05/28 05:14:42;;;;;;;31.85;22.52;;;10.00;99.90;;;;;;5067103;28;20060;-73
2021/05/28 05:17:07;;;;;;;27.48;20.52;;;9.80;99.90;;;;;;5039428;28;20028;-73
2021/05/28 05:19:33;;;;;;;28.58;20.45;;;9.80;99.90;;;;;;5039294;28;20067;-73
2021/05/28 05:21:58;;;;;;;28.13;19.92;;;9.70;99.90;;;;;;5074053;28;20032;-73
2021/05/28 05:24:24;;;;;;;25.45;19.10;;;9.80;99.90;;;;;;5077200;28;20028;-73
2021/05/28 05:26:49;;;;;;;26.08;18.88;;;9.80;99.90;;;;;;5072911;28;20508;-73
2021/05/28 05:29:15;;;;;;;25.70;18.90;;;9.90;99.90;;;;;;5066156;28;20028;-73
2021/05/28 05:31:41;;;;;;;27.90;18.67;;;9.90;99.90;;;;;;5077984;28;20021;-73
2021/05/28 05:34:07;;;;;;;24.92;19.00;;;9.80;99.90;;;;;;5060020;28;20506;-72
2021/05/28 05:36:34;;;;;;;23.95;18.73;;;9.80;99.90;;;;;;5064044;28;20027;-72
2021/05/28 05:39:00;;;;;;;26.48;18.65;;;9.80;99.90;;;;;;5077169;28;20032;-73
2021/05/28 05:41:26;;;;;;;26.00;19.75;;;9.70;99.90;;;;;;5057516;28;20033;-73
2021/05/28 05:43:51;;;;;;;25.00;18.25;;;9.80;99.90;;;;;;5057698;28;20027;-73
2021/05/28 05:46:17;;;;;;;23.27;18.05;;;10.00;99.90;;;;;;5073238;28;20060;-72
2021/05/28 05:48:43;;;;;;;21.98;17.13;;;10.00;99.90;;;;;;5049917;28;20032;-72
2021/05/28 05:51:08;;;;;;;23.30;17.40;;;10.20;99.90;;;;;;5058980;28;20166;-72
2021/05/28 05:53:34;;;;;;;21.40;15.93;;;10.20;99.90;;;;;;5076903;28;20031;-73
2021/05/28 05:56:00;;;;;;;21.10;16.92;;;10.40;99.90;;;;;;5076498;28;20029;-72
2021/05/28 05:58:25;;;;;;;20.90;16.42;;;10.40;99.90;;;;;;5071514;28;20028;-73
2021/05/28 06:00:51;;;;;;;23.73;15.93;;;10.50;99.90;;;;;;5038275;28;20021;-72
2021/05/28 06:03:16;;;;;;;19.83;15.70;;;10.50;99.90;;;;;;5066443;28;20476;-72
2021/05/28 06:05:42;;;;;;;22.95;16.52;;;10.60;99.90;;;;;;5057224;28;20020;-72
2021/05/28 06:08:07;;;;;;;17.25;14.82;;;10.60;99.90;;;;;;5056499;28;20025;-73
2021/05/28 06:10:33;;;;;;;21.50;15.75;;;10.70;99.90;;;;;;5058868;28;20052;-73
2021/05/28 06:13:07;;;;;;;19.48;14.82;;;10.80;99.90;;;;;;5076230;28;20491;-73
2021/05/28 06:15:33;;;;;;;20.65;14.55;;;10.80;99.90;;;;;;5053370;28;20504;-70
2021/05/28 06:17:59;;;;;;;15.95;13.25;;;10.90;99.90;;;;;;5065657;28;20032;-72
2021/05/28 06:20:27;;;;;;;19.20;14.50;;;10.90;99.90;;;;;;5044519;28;20021;-72
2021/05/28 06:22:52;;;;;;;18.60;14.45;;;10.90;99.90;;;;;;5058394;28;20017;-73
2021/05/28 06:25:18;;;;;;;19.73;16.15;;;11.00;99.90;;;;;;5063767;28;20442;-72
2021/05/28 06:27:44;;;;;;;18.75;15.05;;;10.90;99.90;;;;;;5058068;28;20029;-73
2021/05/28 06:30:10;;;;;;;22.35;15.30;;;11.00;99.90;;;;;;5062499;28;20506;-72
2021/05/28 06:32:36;;;;;;;19.17;14.35;;;11.00;99.90;;;;;;5047369;28;20032;-73
2021/05/28 06:35:02;;;;;;;19.40;14.73;;;11.10;99.90;;;;;;5056205;28;20028;-73
2021/05/28 06:37:27;;;;;;;19.42;13.23;;;11.20;99.90;;;;;;5076678;28;20032;-72
2021/05/28 06:39:53;;;;;;;18.67;14.00;;;11.30;99.90;;;;;;5055878;28;20024;-72
2021/05/28 06:42:19;;;;;;;17.48;13.93;;;11.40;99.90;;;;;;5040629;28;20032;-72
2021/05/28 06:44:44;;;;;;;15.52;13.18;;;11.40;99.90;;;;;;5069673;28;20029;-73
2021/05/28 06:47:10;;;;;;;22.85;14.07;;;11.30;99.90;;;;;;5055761;28;20106;-73
2021/05/28 06:49:35;;;;;;;15.70;12.18;;;11.20;99.90;;;;;;5057933;28;20031;-72
2021/05/28 06:52:01;;;;;;;16.20;12.23;;;11.20;99.90;;;;;;5060890;28;20035;-71
2021/05/28 06:54:29;;;;;;;14.18;12.68;;;11.20;99.90;;;;;;5064933;28;20053;-72
2021/05/28 06:56:54;;;;;;;15.10;12.45;;;11.30;99.90;;;;;;5062437;28;20031;-72
2021/05/28 06:59:20;;;;;;;14.43;11.98;;;11.40;99.90;;;;;;5054352;28;20024;-72
2021/05/28 07:01:45;;;;;;;16.95;12.75;;;11.50;99.90;;;;;;5033836;28;20032;-72
2021/05/28 07:04:11;;;;;;;14.38;12.20;;;11.30;99.90;;;;;;5068902;28;20086;-72
2021/05/28 07:06:36;;;;;;;16.17;12.70;;;11.40;99.90;;;;;;5053583;28;20145;-72
2021/05/28 07:09:03;;;;;;;16.25;10.98;;;11.40;99.90;;;;;;5057816;28;20031;-72
2021/05/28 07:11:29;;;;;;;13.60;10.18;;;11.50;99.90;;;;;;5060604;28;20507;-72
2021/05/28 07:13:54;;;;;;;11.18;9.32;;;11.50;99.90;;;;;;5069060;28;20033;-72
2021/05/28 07:16:20;;;;;;;12.05;9.98;;;11.50;99.90;;;;;;5070701;28;20020;-72
2021/05/28 07:18:47;;;;;;;14.40;9.18;;;11.70;99.90;;;;;;5071167;28;20028;-72
2021/05/28 07:21:12;;;;;;;10.75;9.00;;;11.70;99.90;;;;;;5071507;28;20067;-72
2021/05/28 07:23:38;;;;;;;11.43;9.60;;;11.80;99.90;;;;;;5053675;28;20024;-72
2021/05/28 07:26:03;;;;;;;12.18;8.80;;;11.80;99.90;;;;;;5071630;28;20366;-72
2021/05/28 07:28:29;;;;;;;9.63;8.23;;;11.90;99.90;;;;;;5071394;28;20508;-72
2021/05/28 07:30:56;;;;;;;11.30;7.50;;;11.90;99.90;;;;;;5053075;28;20439;-72
2021/05/28 07:33:22;;;;;;;10.73;8.57;;;12.10;99.90;;;;;;5071511;28;20376;-72
2021/05/28 07:35:47;;;;;;;10.20;8.60;;;12.10;99.90;;;;;;5042476;28;20028;-72
2021/05/28 07:38:13;;;;;;;9.10;8.20;;;12.00;99.90;;;;;;5064641;28;20047;-72
2021/05/28 07:40:40;;;;;;;11.60;8.82;;;12.10;99.90;;;;;;5051028;28;20155;-72
2021/05/28 07:43:05;;;;;;;9.43;8.20;;;12.20;99.90;;;;;;5064701;28;20053;-72
2021/05/28 07:45:32;;;;;;;10.55;7.88;;;12.40;99.90;;;;;;5061717;28;20071;-72
2021/05/28 07:47:58;;;;;;;12.10;8.50;;;12.50;99.90;;;;;;5071159;28;20044;-72
2021/05/28 07:50:24;;;;;;;11.13;7.47;;;12.50;99.90;;;;;;5071798;28;20067;-72
2021/05/28 07:52:50;;;;;;;12.10;8.38;;;12.70;99.90;;;;;;5075086;28;20055;-72
2021/05/28 07:55:15;;;;;;;10.80;7.80;;;12.80;99.90;;;;;;5057118;28;20029;-72
2021/05/28 07:57:41;;;;;;;9.50;7.82;;;12.70;99.90;;;;;;5074975;28;20033;-72
2021/05/28 08:00:08;;;;;;;9.57;7.93;;;12.50;99.90;;;;;;5055717;28;20032;-72
2021/05/28 08:02:34;;;;;;;9.20;7.63;;;12.40;99.90;;;;;;5054859;28;20020;-72
2021/05/28 08:05:00;;;;;;;11.05;8.27;;;12.60;99.90;;;;;;5074911;28;20476;-72
2021/05/28 08:07:26;;;;;;;9.00;7.10;;;12.80;99.90;;;;;;5064150;28;20371;-72
2021/05/28 08:09:51;;;;;;;9.85;7.43;;;12.80;99.90;;;;;;5074708;28;20024;-72
2021/05/28 08:12:17;;;;;;;7.95;6.78;;;12.80;99.90;;;;;;5039013;28;20017;-72
2021/05/28 08:14:43;;;;;;;10.90;7.75;;;12.90;99.90;;;;;;5065760;28;20025;-72
2021/05/28 08:17:09;;;;;;;8.25;6.55;;;12.70;99.90;;;;;;5069927;28;20044;-72
2021/05/28 08:19:35;;;;;;;12.07;7.70;;;12.80;99.90;;;;;;5036861;28;20380;-72
2021/05/28 08:22:01;;;;;;;10.75;6.60;;;12.90;99.90;;;;;;5036494;28;20025;-72
2021/05/28 08:24:26;;;;;;;7.00;6.15;;;13.00;99.90;;;;;;5065929;28;20033;-72
2021/05/28 08:26:52;;;;;;;8.50;5.97;;;12.70;99.90;;;;;;5043107;28;20026;-71
2021/05/28 08:29:18;;;;;;;7.70;6.00;;;12.40;99.90;;;;;;5063240;28;20040;-72
2021/05/28 08:31:43;;;;;;;7.88;6.60;;;12.50;99.90;;;;;;5041030;28;20021;-72
2021/05/28 08:34:09;;;;;;;9.38;6.03;;;12.60;99.90;;;;;;5045697;28;20618;-72
2021/05/28 08:36:35;;;;;;;9.23;5.93;;;12.60;99.90;;;;;;5054314;28;20059;-72
2021/05/28 08:39:00;;;;;;;7.82;5.90;;;12.80;99.90;;;;;;5065316;28;20082;-71
2021/05/28 08:41:27;;;;;;;6.63;5.80;;;12.70;99.90;;;;;;5070062;28;20135;-72
2021/05/28 08:43:53;;;;;;;6.53;5.90;;;12.80;99.90;;;;;;5054167;28;20079;-72
2021/05/28 08:46:21;;;;;;;7.00;5.53;;;12.60;99.90;;;;;;5049539;28;20032;-72
2021/05/28 08:48:50;;;;;;;6.75;5.40;;;12.50;99.90;;;;;;5054293;28;20508;-72
2021/05/28 08:51:17;;;;;;;6.22;5.03;;;12.70;99.90;;;;;;5059275;28;20050;-72
2021/05/28 08:53:43;;;;;;;8.25;5.40;;;13.00;99.90;;;;;;5062177;28;20056;-72
2021/05/28 08:56:12;;;;;;;6.45;5.20;;;12.80;99.90;;;;;;5049545;28;20049;-72
2021/05/28 08:58:38;;;;;;;7.78;5.05;;;12.80;99.90;;;;;;5059414;28;20032;-71
2021/05/28 09:01:07;;;;;;;7.53;5.68;;;12.90;99.90;;;;;;5043627;28;20447;-72
2021/05/28 09:03:35;;;;;;;6.32;5.70;;;12.80;99.90;;;;;;5059786;28;20029;-72
2021/05/28 09:06:02;;;;;;;5.90;4.70;;;12.80;99.90;;;;;;5049218;28;20025;-72
2021/05/28 09:08:36;;;;;;;6.47;4.63;;;13.20;99.90;;;;;;5066847;28;20033;-72
2021/05/28 09:11:17;;;;;;;8.70;4.72;;;13.30;99.90;;;;;;5041154;28;20032;-72
2021/05/28 09:13:45;;;;;;;11.02;5.50;;;13.20;99.90;;;;;;5070084;28;20028;-72
2021/05/28 09:16:27;;;;;;;7.63;4.75;;;13.20;99.90;;;;;;5063841;28;20048;-72
2021/05/28 09:18:57;;;;;;;6.35;5.07;;;13.10;99.90;;;;;;5058916;28;20403;-72
2021/05/28 09:21:30;;;;;;;5.90;5.25;;;13.30;99.90;;;;;;5061100;28;20024;-72
2021/05/28 09:23:56;;;;;;;7.40;5.15;;;13.30;99.90;;;;;;5047866;28;20028;-72
2021/05/28 09:26:25;;;;;;;9.85;5.97;;;13.40;99.90;;;;;;5042073;28;20017;-72
2021/05/28 09:28:51;;;;;;;8.77;5.57;;;13.40;99.90;;;;;;5066119;28;20029;-72
2021/05/28 09:31:25;;;;;;;8.30;4.82;;;13.40;99.90;;;;;;5067322;28;20079;-72
2021/05/28 09:33:52;;;;;;;6.63;4.95;;;13.50;99.90;;;;;;5064558;28;20135;-72
2021/05/28 09:36:21;;;;;;;6.93;5.20;;;13.40;99.90;;;;;;5048767;28;20040;-72
2021/05/28 09:39:02;;;;;;;6.60;5.15;;;13.40;99.90;;;;;;5044286;28;20059;-72
2021/05/28 09:41:52;;;;;;;6.78;4.82;;;13.40;99.90;;;;;;5073271;28;20016;-72
2021/05/28 09:44:24;;;;;;;9.65;5.70;;;12.90;99.90;;;;;;5059704;28;20638;-72
2021/05/28 09:47:04;;;;;;;6.78;5.13;;;12.90;99.90;;;;;;5064211;28;20036;-72
2021/05/28 09:49:38;;;;;;;7.40;5.32;;;13.00;99.90;;;;;;5057086;28;20729;-72
2021/05/28 09:52:18;;;;;;;8.07;4.38;;;13.20;99.90;;;;;;5061064;28;20029;-72
2021/05/28 09:55:13;;;;;;;4.53;3.58;;;13.50;99.90;;;;;;5038746;28;20021;-72
2021/05/28 09:57:46;;;;;;;4.45;3.67;;;13.20;99.90;;;;;;5041391;28;20455;-72
2021/05/28 10:00:21;;;;;;;5.75;4.10;;;13.10;99.90;;;;;;5056660;28;20388;-72
2021/05/28 10:02:48;;;;;;;5.20;3.97;;;13.00;99.90;;;;;;5055878;28;20088;-72
2021/05/28 10:05:24;;;;;;;4.38;3.97;;;13.10;99.90;;;;;;5039796;28;20020;-71
2021/05/28 10:07:50;;;;;;;;;;;13.10;99.90;;;;;;5052728;28;20017;-72
2021/05/28 10:10:17;;;;;;;5.25;4.07;;;13.30;99.90;;;;;;5053509;28;19912;-72
2021/05/28 10:12:46;;;;;;;4.38;3.70;;;13.60;99.90;;;;;;5053342;28;20052;-72
2021/05/28 10:15:12;;;;;;;5.72;3.85;;;13.70;99.90;;;;;;5034310;28;20029;-72
2021/05/28 10:17:38;;;;;;;7.72;3.80;;;13.40;99.90;;;;;;5051576;28;20488;-72
2021/05/28 10:20:06;;;;;;;5.07;3.55;;;13.60;99.90;;;;;;5040284;28;20025;-72
2021/05/28 10:22:32;;;;;;;6.65;4.05;;;13.40;99.90;;;;;;5053682;28;20123;-72
2021/05/28 10:24:57;;;;;;;6.32;4.13;;;13.30;99.90;;;;;;5052289;28;20033;-72
2021/05/28 10:27:24;;;;;;;4.32;3.70;;;13.80;99.90;;;;;;5052408;28;20025;-72
2021/05/28 10:29:54;;;;;;;5.80;3.30;;;14.40;99.90;;;;;;5049775;28;20017;-72
2021/05/28 10:32:21;;;;;;;4.43;3.15;;;14.90;99.90;;;;;;5052736;28;20103;-72
2021/05/28 10:35:12;;;;;;;4.20;3.30;;;15.50;99.90;;;;;;5053628;28;20032;-72
2021/05/28 10:37:42;;;;;;;3.03;2.63;;;15.20;99.90;;;;;;5049081;28;20036;-72
2021/05/28 10:40:30;;;;;;;4.32;3.17;;;15.00;99.90;;;;;;5052246;28;20033;-72
2021/05/28 10:43:06;;;;;;;4.10;3.65;;;14.80;99.90;;;;;;5047475;28;20469;-72
2021/05/28 10:46:05;;;;;;;5.93;4.47;;;14.60;99.90;;;;;;5039687;28;20033;-72
2021/05/28 10:48:40;;;;;;;4.13;3.22;;;14.10;99.90;;;;;;5040515;28;20111;-71
2021/05/28 10:51:37;;;;;;;6.20;3.03;;;13.30;99.90;;;;;;5051784;28;20108;-73
2021/05/28 10:54:02;;;;;;;;;;;13.10;99.90;;;;;;5043373;28;20044;-71
2021/05/28 10:56:49;;;;;;;5.57;3.53;;;13.20;99.90;;;;;;5054589;28;19915;-72
2021/05/28 10:59:16;;;;;;;5.05;3.47;;;13.40;99.90;;;;;;5046060;28;20036;-72
2021/05/28 11:01:56;;;;;;;6.43;3.78;;;13.60;99.90;;;;;;5051714;28;20477;-72
2021/05/28 11:04:43;;;;;;;4.53;3.78;;;13.70;99.90;;;;;;5051491;28;20071;-71
2021/05/28 11:07:08;;;;;;;5.03;3.58;;;13.80;99.90;;;;;;5048139;28;20044;-72
2021/05/28 11:09:51;;;;;;;4.10;3.60;;;14.20;99.90;;;;;;5033564;28;20025;-72
2021/05/28 11:12:24;;;;;;;4.68;3.75;;;14.50;99.90;;;;;;5036227;28;20047;-72
2021/05/28 11:15:13;;;;;;;5.55;2.88;;;14.40;99.90;;;;;;5051855;28;20021;-72
2021/05/28 11:17:51;;;;;;;4.95;3.00;;;14.30;99.90;;;;;;5041899;28;20033;-71
2021/05/28 11:20:43;;;;;;;3.50;3.13;;;14.30;99.90;;;;;;5051132;28;20509;-71
2021/05/28 11:23:16;;;;;;;2.90;2.70;;;14.40;99.90;;;;;;5050853;28;20396;-72
2021/05/28 11:25:51;;;;;;;3.13;2.30;;;14.50;99.90;;;;;;5038161;28;20036;-72
2021/05/28 11:28:16;;;;;;;3.47;2.45;;;14.30;99.90;;;;;;5051261;28;20028;-72
2021/05/28 11:30:48;;;;;;;3.08;2.47;;;14.00;99.90;;;;;;5051245;28;20096;-72
2021/05/28 11:33:32;;;;;;;3.15;2.28;;;14.30;99.90;;;;;;5050854;28;20025;-72
2021/05/28 11:36:00;;;;;;;2.35;1.83;;;14.40;99.90;;;;;;5051833;28;20087;-72
2021/05/28 11:38:33;;;;;;;3.33;2.05;;;14.40;99.90;;;;;;5053153;28;20025;-72
2021/05/28 11:40:59;;;;;;;4.80;2.30;;;14.50;99.90;;;;;;5057732;28;20021;-72
2021/05/28 11:43:25;;;;;;;3.65;2.17;;;14.70;99.90;;;;;;5051289;28;20094;-72
2021/05/28 11:45:54;;;;;;;2.78;2.15;;;14.90;99.90;;;;;;5041301;28;20032;-72
2021/05/28 11:48:22;;;;;;;1.90;1.80;;;14.80;99.90;;;;;;5040460;28;20030;-71
2021/05/28 11:51:00;;;;;;;4.18;1.88;;;15.10;99.90;;;;;;5053124;28;20415;-72
2021/05/28 11:53:32;;;;;;;3.15;2.15;;;15.30;99.90;;;;;;5051088;28;20025;-71
2021/05/28 11:55:59;;;;;;;3.28;2.20;;;15.40;99.90;;;;;;5047279;28;20417;-70
2021/05/28 11:58:32;;;;;;;3.80;2.00;;;15.80;99.90;;;;;;5050945;28;20365;-72
2021/05/28 12:00:59;;;;;;;2.28;2.08;;;15.90;99.90;;;;;;5048895;28;20104;-72
2021/05/28 12:03:25;;;;;;;1.73;1.63;;;15.60;99.90;;;;;;5050815;28;20477;-72
2021/05/28 12:05:52;;;;;;;2.80;2.03;;;15.50;99.90;;;;;;5050811;28;20021;-73
2021/05/28 12:08:29;;;;;;;2.22;1.50;;;15.60;99.90;;;;;;5050952;28;20028;-72
2021/05/28 12:11:00;;;;;;;3.17;1.52;;;15.20;99.90;;;;;;5058457;28;20051;-72
2021/05/28 12:13:31;;;;;;;2.60;1.75;;;14.90;99.90;;;;;;5056940;28;20032;-72
2021/05/28 12:16:06;;;;;;;1.48;1.33;;;15.00;99.90;;;;;;5043366;28;20029;-72
2021/05/28 12:18:33;;;;;;;3.28;1.70;;;15.00;99.90;;;;;;5067044;28;20025;-73
2021/05/28 12:21:01;;;;;;;3.10;1.67;;;15.10;99.90;;;;;;5070762;28;20017;-72
2021/05/28 12:23:41;;;;;;;2.63;1.90;;;15.50;99.90;;;;;;5070861;28;20104;-72
2021/05/28 12:26:14;;;;;;;2.25;1.40;;;15.60;99.90;;;;;;5070868;28;20021;-71
2021/05/28 12:28:52;;;;;;;2.88;1.65;;;15.80;99.90;;;;;;5057299;28;20480;-72
2021/05/28 12:31:29;;;;;;;2.17;1.65;;;16.20;99.90;;;;;;5070664;28;20407;-72
2021/05/28 12:33:58;;;;;;;2.05;1.65;;;16.30;99.90;;;;;;5070936;28;20032;-72
2021/05/28 12:36:29;;;;;;;2.13;1.70;;;16.40;99.90;;;;;;5071205;28;20020;-72
2021/05/28 12:38:56;;;;;;;1.65;1.50;;;16.10;99.90;;;;;;5056336;28;20020;-72
2021/05/28 12:41:30;;;;;;;2.47;1.60;;;16.40;99.90;;;;;;5052773;28;20025;-73
2021/05/28 12:43:58;;;;;;;3.20;2.38;;;16.20;99.90;;;;;;5047315;28;20028;-73